createdAt,value
2019-05-21T00:01:33.485Z,95.80
2019-05-21T00:04:02.273Z,96.12
2019-05-21T00:06:30.751Z,96.11
2019-05-21T00:08:59.546Z,96.36
2019-05-21T00:11:28.387Z,96.12
2019-05-21T00:13:56.837Z,96.03
2019-05-21T00:16:25.307Z,96.06
2019-05-21T00:18:53.989Z,96.12
2019-05-21T00:21:22.486Z,96.10
2019-05-21T00:23:50.988Z,95.84
2019-05-21T00:26:19.844Z,95.78
2019-05-21T00:29:24.493Z,96.01
2019-05-21T00:32:29.157Z,96.05
2019-05-21T00:35:50.942Z,96.47
2019-05-21T00:38:55.780Z,96.31
2019-05-21T00:42:01.286Z,96.31
2019-05-21T00:44:35.821Z,96.49
2019-05-21T00:47:05.837Z,96.25
2019-05-21T00:49:35.274Z,96.37
2019-05-21T00:52:08.996Z,96.56
2019-05-21T00:54:34.043Z,96.87
2019-05-21T00:57:02.584Z,96.77
2019-05-21T00:59:30.978Z,96.40
2019-05-21T01:01:59.413Z,96.27
2019-05-21T01:04:28.043Z,96.24
2019-05-21T01:06:56.411Z,96.21
2019-05-21T01:09:24.982Z,96.26
2019-05-21T01:11:53.659Z,96.78
2019-05-21T01:14:22.218Z,96.78
2019-05-21T01:16:51.241Z,96.94
2019-05-21T01:19:19.776Z,96.83
2019-05-21T01:21:48.287Z,96.59
2019-05-21T01:24:16.663Z,96.64
2019-05-21T01:26:45.374Z,96.71
2019-05-21T01:29:13.918Z,96.87
2019-05-21T01:31:42.661Z,96.70
2019-05-21T01:34:11.702Z,96.52
2019-05-21T01:36:40.342Z,96.47
2019-05-21T01:39:08.770Z,96.44
2019-05-21T01:41:37.221Z,96.25
2019-05-21T01:44:05.683Z,95.92
2019-05-21T01:46:34.094Z,96.10
2019-05-21T01:49:02.460Z,95.94
2019-05-21T01:51:31.003Z,95.79
2019-05-21T01:54:00.165Z,95.54
2019-05-21T01:56:28.617Z,95.70
2019-05-21T01:58:57.084Z,95.70
2019-05-21T02:01:25.870Z,95.80
2019-05-21T02:03:54.407Z,95.66
2019-05-21T02:06:23.755Z,95.70
2019-05-21T02:08:52.134Z,95.47
2019-05-21T02:11:20.927Z,95.39
2019-05-21T02:13:49.359Z,95.74
2019-05-21T02:16:18.091Z,95.93
2019-05-21T02:18:46.622Z,96.03
2019-05-21T02:21:15.107Z,96.08
2019-05-21T02:23:43.861Z,95.84
2019-05-21T02:26:12.341Z,95.43
2019-05-21T02:28:40.724Z,95.38
2019-05-21T02:31:09.197Z,95.14
2019-05-21T02:33:37.620Z,95.39
2019-05-21T02:36:06.050Z,95.62
2019-05-21T02:38:34.481Z,94.94
2019-05-21T02:41:02.891Z,95.11
2019-05-21T02:43:31.376Z,94.98
2019-05-21T02:45:59.753Z,95.12
2019-05-21T02:48:28.269Z,95.21
2019-05-21T02:50:56.795Z,95.07
2019-05-21T02:53:25.263Z,94.81
2019-05-21T02:55:53.720Z,95.02
2019-05-21T02:58:22.234Z,94.80
2019-05-21T03:00:52.388Z,95.17
2019-05-21T03:03:22.508Z,95.37
2019-05-21T03:05:50.962Z,95.51
2019-05-21T03:08:19.501Z,95.50
2019-05-21T03:10:47.882Z,95.86
2019-05-21T03:13:16.253Z,95.35
2019-05-21T03:15:44.699Z,95.31
2019-05-21T03:18:13.165Z,95.22
2019-05-21T03:20:41.922Z,95.23
2019-05-21T03:23:10.475Z,95.31
2019-05-21T03:25:38.939Z,95.11
2019-05-21T03:28:07.330Z,95.24
2019-05-21T03:30:35.876Z,95.57
2019-05-21T03:33:04.399Z,95.40
2019-05-21T03:35:32.846Z,94.94
2019-05-21T03:38:01.303Z,94.73
2019-05-21T03:40:29.726Z,94.53
2019-05-21T03:42:58.209Z,94.83
2019-05-21T03:45:26.639Z,94.59
2019-05-21T03:47:55.100Z,94.81
2019-05-21T03:50:23.554Z,94.58
2019-05-21T03:52:52.058Z,94.44
2019-05-21T03:55:20.440Z,94.17
2019-05-21T03:57:48.966Z,94.09
2019-05-21T04:00:17.670Z,94.31
2019-05-21T04:02:46.133Z,94.54
2019-05-21T04:05:26.238Z,94.76
2019-05-21T04:07:54.691Z,94.48
2019-05-21T04:10:23.135Z,94.27
2019-05-21T04:13:07.593Z,94.27
2019-05-21T04:15:42.186Z,94.18
2019-05-21T04:18:24.725Z,93.85
2019-05-21T04:20:53.223Z,93.59
2019-05-21T04:23:21.725Z,93.24
2019-05-21T04:25:50.108Z,92.73
2019-05-21T04:28:18.494Z,92.90
2019-05-21T04:30:47.241Z,92.91
2019-05-21T04:33:16.028Z,92.50
2019-05-21T04:35:44.391Z,91.94
2019-05-21T04:38:12.865Z,91.49
2019-05-21T04:40:41.240Z,91.27
2019-05-21T04:43:09.662Z,91.59
2019-05-21T04:45:38.015Z,91.84
2019-05-21T04:48:06.402Z,91.82
2019-05-21T04:50:35.099Z,91.62
2019-05-21T04:53:03.636Z,90.98
2019-05-21T04:55:32.214Z,90.69
2019-05-21T04:58:00.857Z,90.39
2019-05-21T05:00:29.397Z,90.43
2019-05-21T05:02:57.876Z,90.26
2019-05-21T05:05:26.329Z,90.05
2019-05-21T05:07:54.882Z,89.29
2019-05-21T05:10:23.675Z,87.92
2019-05-21T05:12:52.223Z,87.59
2019-05-21T05:15:20.784Z,87.41
2019-05-21T05:17:49.302Z,87.69
2019-05-21T05:20:19.956Z,87.01
2019-05-21T05:22:48.442Z,87.12
2019-05-21T05:25:17.452Z,87.42
2019-05-21T05:27:47.340Z,88.53
2019-05-21T05:30:16.523Z,88.77
2019-05-21T05:32:45.249Z,87.59
2019-05-21T05:35:14.287Z,88.56
2019-05-21T05:37:46.334Z,87.70
2019-05-21T05:40:14.114Z,86.75
2019-05-21T05:42:42.739Z,86.39
2019-05-21T05:45:12.793Z,86.75
2019-05-21T05:47:41.234Z,86.33
2019-05-21T05:50:27.161Z,84.47
2019-05-21T05:52:55.560Z,84.20
2019-05-21T05:55:24.416Z,85.27
2019-05-21T05:57:53.543Z,83.41
2019-05-21T06:00:23.444Z,83.94
2019-05-21T06:02:52.433Z,83.70
2019-05-21T06:05:21.215Z,84.38
2019-05-21T06:07:59.235Z,83.71
2019-05-21T06:10:20.393Z,84.08
2019-05-21T06:12:48.835Z,84.74
2019-05-21T06:15:17.859Z,84.99
2019-05-21T06:17:46.239Z,85.37
2019-05-21T06:20:15.278Z,83.97
2019-05-21T06:22:43.714Z,84.24
2019-05-21T06:25:12.543Z,82.88
2019-05-21T06:27:41.341Z,82.27
2019-05-21T06:30:10.950Z,81.95
2019-05-21T06:32:39.678Z,80.76
2019-05-21T06:35:08.273Z,79.26
2019-05-21T06:37:37.011Z,76.58
2019-05-21T06:40:06.620Z,75.70
2019-05-21T06:42:35.028Z,73.70
2019-05-21T06:45:04.832Z,74.27
2019-05-21T06:47:33.240Z,72.29
2019-05-21T06:50:01.647Z,71.45
2019-05-21T06:52:30.088Z,72.25
2019-05-21T06:54:58.483Z,72.76
2019-05-21T06:57:37.488Z,70.39
2019-05-21T07:00:08.537Z,71.45
2019-05-21T07:02:37.130Z,69.69
2019-05-21T07:05:06.332Z,66.25
2019-05-21T07:07:34.936Z,67.41
2019-05-21T07:10:05.185Z,65.84
2019-05-21T07:12:33.621Z,65.04
2019-05-21T07:15:02.458Z,64.95
2019-05-21T07:17:31.101Z,62.62
2019-05-21T07:20:00.263Z,61.13
2019-05-21T07:22:28.962Z,59.56
2019-05-21T07:24:57.407Z,59.52
2019-05-21T07:27:25.944Z,57.52
2019-05-21T07:29:54.605Z,54.52
2019-05-21T07:32:23.535Z,56.01
2019-05-21T07:34:52.154Z,53.70
2019-05-21T07:37:20.649Z,53.59
2019-05-21T07:39:49.119Z,53.97
2019-05-21T07:42:17.557Z,54.07
2019-05-21T07:44:46.081Z,53.89
2019-05-21T07:47:14.638Z,55.50
2019-05-21T07:49:43.013Z,55.65
2019-05-21T07:52:11.401Z,57.81
2019-05-21T07:54:39.992Z,58.05
2019-05-21T07:57:08.359Z,57.91
2019-05-21T07:59:36.760Z,56.88
2019-05-21T08:02:05.237Z,56.35
2019-05-21T08:04:33.975Z,55.61
2019-05-21T08:07:03.060Z,55.67
2019-05-21T08:09:31.456Z,55.52
2019-05-21T08:11:59.975Z,53.32
2019-05-21T08:14:28.348Z,52.21
2019-05-21T08:16:56.970Z,51.40
2019-05-21T08:19:25.454Z,49.35
2019-05-21T08:21:54.264Z,48.71
2019-05-21T08:24:22.766Z,49.69
2019-05-21T08:26:51.571Z,48.66
2019-05-21T08:29:19.934Z,48.41
2019-05-21T08:31:48.336Z,47.48
2019-05-21T08:34:17.190Z,47.82
2019-05-21T08:36:45.571Z,48.97
2019-05-21T08:39:27.829Z,46.65
2019-05-21T08:41:44.475Z,47.75
2019-05-21T08:44:13.268Z,47.96
2019-05-21T08:46:42.078Z,46.90
2019-05-21T08:49:10.511Z,44.85
2019-05-21T08:51:39.126Z,42.89
2019-05-21T08:54:07.571Z,41.74
2019-05-21T08:56:36.005Z,41.71
2019-05-21T08:59:04.483Z,40.17
2019-05-21T09:01:33.361Z,41.94
2019-05-21T09:04:01.859Z,46.24
2019-05-21T09:06:30.435Z,47.21
2019-05-21T09:08:58.896Z,46.56
2019-05-21T09:11:27.363Z,46.96
2019-05-21T09:13:55.735Z,47.30
2019-05-21T09:16:24.177Z,44.15
2019-05-21T09:18:52.637Z,40.58
2019-05-21T09:21:21.632Z,41.02
2019-05-21T09:23:50.072Z,42.78
2019-05-21T09:26:18.572Z,40.66
2019-05-21T09:28:47.067Z,40.75
2019-05-21T09:31:15.449Z,39.52
2019-05-21T09:33:43.871Z,39.50
2019-05-21T09:36:12.625Z,42.25
2019-05-21T09:38:41.153Z,44.40
2019-05-21T09:41:09.998Z,46.26
2019-05-21T09:43:38.789Z,46.75
2019-05-21T09:46:07.579Z,46.57
2019-05-21T09:48:36.412Z,44.58
2019-05-21T09:51:04.993Z,46.30
2019-05-21T09:53:33.453Z,48.01
2019-05-21T09:56:03.445Z,50.28
2019-05-21T09:58:33.520Z,50.82
2019-05-21T10:01:18.323Z,50.44
2019-05-21T10:03:48.419Z,50.41
2019-05-21T10:06:16.874Z,49.95
2019-05-21T10:08:45.245Z,47.92
2019-05-21T10:11:13.686Z,47.62
2019-05-21T10:13:42.507Z,48.16
2019-05-21T10:16:10.950Z,49.76
2019-05-21T10:18:39.500Z,49.18
2019-05-21T10:21:08.034Z,50.84
2019-05-21T10:23:36.470Z,51.47
2019-05-21T10:26:05.039Z,52.21
2019-05-21T10:28:33.559Z,51.31
2019-05-21T10:31:02.049Z,50.26
2019-05-21T10:33:30.778Z,48.71
2019-05-21T10:35:59.400Z,48.82
2019-05-21T10:38:28.250Z,48.87
2019-05-21T10:40:56.783Z,47.05
2019-05-21T10:43:25.216Z,47.10
2019-05-21T10:45:53.698Z,46.50
2019-05-21T10:48:22.112Z,47.36
2019-05-21T10:50:50.882Z,48.35
2019-05-21T10:53:19.754Z,48.03
2019-05-21T10:55:48.232Z,48.11
2019-05-21T10:58:16.721Z,47.33
2019-05-21T11:00:47.171Z,47.59
2019-05-21T11:03:29.450Z,47.50
2019-05-21T11:06:09.487Z,47.59
2019-05-21T11:08:28.968Z,48.55
2019-05-21T11:10:57.616Z,47.92
2019-05-21T11:13:26.127Z,47.29
2019-05-21T11:15:54.631Z,47.33
2019-05-21T11:18:23.622Z,47.81
2019-05-21T11:20:52.173Z,48.99
2019-05-21T11:23:20.649Z,47.30
2019-05-21T11:25:49.271Z,46.90
2019-05-21T11:28:17.722Z,47.47
2019-05-21T11:30:46.183Z,47.11
2019-05-21T11:33:14.667Z,46.51
2019-05-21T11:35:43.143Z,46.18
2019-05-21T11:38:11.641Z,46.64
2019-05-21T11:40:40.201Z,47.29
2019-05-21T11:43:08.781Z,45.79
2019-05-21T11:45:37.219Z,43.96
2019-05-21T11:48:05.699Z,43.73
2019-05-21T11:50:34.401Z,42.35
2019-05-21T11:53:02.865Z,43.24
2019-05-21T11:55:31.309Z,44.13
2019-05-21T11:58:01.427Z,45.11
2019-05-21T12:00:30.283Z,45.84
2019-05-21T12:02:58.787Z,45.58
2019-05-21T12:05:27.451Z,42.54
2019-05-21T12:07:56.237Z,42.81
2019-05-21T12:10:24.934Z,41.42
2019-05-21T12:12:53.414Z,37.90
2019-05-21T12:15:21.995Z,34.62
2019-05-21T12:17:50.784Z,31.69
2019-05-21T12:20:35.206Z,29.76
2019-05-21T12:22:49.797Z,29.78
2019-05-21T12:25:18.194Z,30.39
2019-05-21T12:27:46.582Z,30.98
2019-05-21T12:30:14.984Z,32.27
2019-05-21T12:32:43.719Z,33.82
2019-05-21T12:35:13.836Z,35.85
2019-05-21T12:37:42.211Z,34.41
2019-05-21T12:40:11.370Z,31.40
2019-05-21T12:42:39.895Z,29.55
2019-05-21T12:45:08.642Z,27.95
2019-05-21T12:47:37.080Z,27.91
2019-05-21T12:50:06.528Z,28.70
2019-05-21T12:52:34.961Z,31.00
2019-05-21T12:55:05.280Z,32.81
2019-05-21T12:57:33.787Z,36.02
2019-05-21T13:00:02.351Z,36.11
2019-05-21T13:02:30.812Z,36.83
2019-05-21T13:04:59.364Z,37.98
2019-05-21T13:07:27.901Z,38.55
2019-05-21T13:09:56.344Z,39.01
2019-05-21T13:12:24.889Z,38.55
2019-05-21T13:14:53.438Z,39.92
2019-05-21T13:17:21.868Z,39.82
2019-05-21T13:19:50.448Z,33.78
2019-05-21T13:22:18.827Z,29.35
2019-05-21T13:24:47.696Z,28.83
2019-05-21T13:27:16.313Z,27.05
2019-05-21T13:29:44.897Z,27.37
2019-05-21T13:32:13.370Z,25.38
2019-05-21T13:34:43.615Z,21.79
2019-05-21T13:37:12.169Z,20.82
2019-05-21T13:39:49.458Z,21.76
2019-05-21T13:42:10.904Z,18.91
2019-05-21T13:44:39.252Z,22.33
2019-05-21T13:47:07.770Z,24.18
2019-05-21T13:49:36.601Z,24.54
2019-05-21T13:52:05.159Z,25.01
2019-05-21T13:54:33.605Z,23.12
2019-05-21T13:57:02.140Z,26.08
2019-05-21T13:59:30.533Z,26.42
2019-05-21T14:01:59.269Z,26.07
2019-05-21T14:04:27.866Z,25.27
2019-05-21T14:06:56.746Z,24.53
2019-05-21T14:09:25.363Z,25.33
2019-05-21T14:11:54.568Z,23.77
2019-05-21T14:14:23.035Z,24.43
2019-05-21T14:16:51.440Z,25.91
2019-05-21T14:19:20.170Z,30.10
2019-05-21T14:21:49.135Z,30.33
2019-05-21T14:24:17.708Z,30.04
2019-05-21T14:26:46.386Z,31.86
2019-05-21T14:29:15.090Z,33.29
2019-05-21T14:31:43.756Z,36.52
2019-05-21T14:34:12.277Z,38.52
2019-05-21T14:36:40.978Z,38.94
2019-05-21T14:39:13.851Z,41.42
2019-05-21T14:41:42.728Z,42.41
2019-05-21T14:44:11.319Z,42.85
2019-05-21T14:46:39.931Z,43.84
2019-05-21T14:49:08.680Z,44.34
2019-05-21T14:51:37.115Z,45.45
2019-05-21T14:54:06.161Z,47.59
2019-05-21T14:56:34.677Z,50.94
2019-05-21T14:59:03.179Z,52.29
2019-05-21T15:01:31.621Z,53.63
2019-05-21T15:04:00.284Z,54.85
2019-05-21T15:06:28.843Z,57.08
2019-05-21T15:08:57.292Z,58.22
2019-05-21T15:11:25.656Z,58.97
2019-05-21T15:13:54.432Z,60.86
2019-05-21T15:16:22.941Z,63.90
2019-05-21T15:18:51.510Z,62.26
2019-05-21T15:21:21.522Z,62.43
2019-05-21T15:23:50.044Z,61.44
2019-05-21T15:26:18.605Z,61.09
2019-05-21T15:28:47.056Z,61.68
2019-05-21T15:31:15.495Z,60.94
2019-05-21T15:33:43.876Z,61.44
2019-05-21T15:36:12.438Z,61.20
2019-05-21T15:38:50.305Z,60.43
2019-05-21T15:41:12.783Z,59.11
2019-05-21T15:43:41.843Z,58.82
2019-05-21T15:46:10.340Z,58.55
2019-05-21T15:48:38.773Z,58.88
2019-05-21T15:51:07.237Z,58.95
2019-05-21T15:53:35.621Z,58.22
2019-05-21T15:56:04.360Z,61.66
2019-05-21T15:58:32.813Z,60.97
2019-05-21T16:01:01.283Z,58.23
2019-05-21T16:03:29.688Z,57.82
2019-05-21T16:05:58.499Z,57.81
2019-05-21T16:08:27.294Z,57.10
2019-05-21T16:10:56.400Z,57.41
2019-05-21T16:13:25.016Z,56.88
2019-05-21T16:15:53.488Z,56.69
2019-05-21T16:18:22.136Z,56.13
2019-05-21T16:20:50.682Z,56.26
2019-05-21T16:23:19.136Z,55.80
2019-05-21T16:25:49.768Z,56.62
2019-05-21T16:28:18.355Z,57.60
2019-05-21T16:30:46.873Z,58.00
2019-05-21T16:33:16.143Z,58.39
2019-05-21T16:35:44.665Z,58.19
2019-05-21T16:38:13.431Z,58.87
2019-05-21T16:40:42.370Z,58.81
2019-05-21T16:43:10.746Z,58.52
2019-05-21T16:45:39.349Z,58.24
2019-05-21T16:48:08.191Z,58.46
2019-05-21T16:50:36.693Z,58.91
2019-05-21T16:53:05.160Z,59.33
2019-05-21T16:55:35.163Z,59.49
2019-05-21T16:58:03.632Z,59.94
2019-05-21T17:00:32.263Z,59.81
2019-05-21T17:03:00.705Z,60.54
2019-05-21T17:05:29.649Z,61.21
2019-05-21T17:08:00.193Z,61.45
2019-05-21T17:10:29.449Z,61.62
2019-05-21T17:12:58.038Z,62.13
2019-05-21T17:15:26.764Z,61.18
2019-05-21T17:17:55.199Z,60.63
2019-05-21T17:20:23.740Z,60.27
2019-05-21T17:22:52.257Z,60.17
2019-05-21T17:25:20.795Z,59.35
2019-05-21T17:27:49.421Z,59.17
2019-05-21T17:30:18.734Z,59.21
2019-05-21T17:32:47.215Z,59.21
2019-05-21T17:35:15.783Z,60.05
2019-05-21T17:37:44.333Z,60.34
2019-05-21T17:40:14.544Z,60.49
2019-05-21T17:42:43.450Z,60.69
2019-05-21T17:45:15.531Z,60.63
2019-05-21T17:47:44.167Z,60.87
2019-05-21T17:50:13.032Z,60.52
2019-05-21T17:52:41.441Z,60.92
2019-05-21T17:55:09.998Z,60.95
2019-05-21T17:57:38.576Z,61.16
2019-05-21T18:00:09.265Z,61.46
2019-05-21T18:02:37.916Z,62.10
2019-05-21T18:05:08.797Z,62.61
2019-05-21T18:07:37.992Z,63.12
2019-05-21T18:10:10.374Z,63.64
2019-05-21T18:12:39.559Z,64.07
2019-05-21T18:15:11.802Z,64.20
2019-05-21T18:17:42.272Z,63.76
2019-05-21T18:20:12.163Z,64.16
2019-05-21T18:22:42.106Z,64.66
2019-05-21T18:25:12.321Z,64.74
2019-05-21T18:27:41.094Z,64.94
2019-05-21T18:30:10.110Z,64.52
2019-05-21T18:32:38.631Z,63.59
2019-05-21T18:35:08.787Z,63.39
2019-05-21T18:37:39.048Z,62.51
2019-05-21T18:40:09.564Z,62.32
2019-05-21T18:42:38.348Z,62.54
2019-05-21T18:45:07.886Z,62.84
2019-05-21T18:47:36.747Z,63.19
2019-05-21T18:50:09.743Z,63.58
2019-05-21T18:52:38.373Z,64.27
2019-05-21T18:55:07.517Z,64.79
2019-05-21T18:57:36.082Z,65.42
2019-05-21T19:00:09.229Z,65.83
2019-05-21T19:02:37.832Z,66.04
2019-05-21T19:05:07.154Z,66.37
2019-05-21T19:07:35.672Z,66.48
2019-05-21T19:10:06.114Z,66.62
2019-05-21T19:12:37.930Z,66.86
2019-05-21T19:15:09.349Z,67.13
2019-05-21T19:17:38.205Z,67.36
2019-05-21T19:20:08.425Z,68.07
2019-05-21T19:22:36.931Z,68.37
2019-05-21T19:25:07.069Z,68.89
2019-05-21T19:27:35.811Z,69.19
2019-05-21T19:30:08.195Z,69.53
2019-05-21T19:32:36.616Z,69.75
2019-05-21T19:35:08.399Z,69.95
2019-05-21T19:37:36.918Z,69.85
2019-05-21T19:40:07.445Z,69.82
2019-05-21T19:42:35.896Z,69.45
2019-05-21T19:45:06.134Z,68.86
2019-05-21T19:47:34.497Z,68.56
2019-05-21T19:50:03.227Z,68.17
2019-05-21T19:52:32.006Z,67.59
2019-05-21T19:55:00.536Z,67.21
2019-05-21T19:57:30.740Z,65.66
2019-05-21T19:59:59.223Z,65.03
2019-05-21T20:02:29.304Z,64.65
2019-05-21T20:04:59.456Z,64.53
2019-05-21T20:07:27.929Z,64.86
2019-05-21T20:09:56.754Z,63.61
2019-05-21T20:12:26.624Z,62.55
2019-05-21T20:14:55.517Z,60.95
2019-05-21T20:17:25.784Z,60.11
2019-05-21T20:19:54.372Z,60.88
2019-05-21T20:22:26.118Z,61.18
2019-05-21T20:24:53.015Z,60.91
2019-05-21T20:27:21.917Z,60.75
2019-05-21T20:29:50.915Z,61.05
2019-05-21T20:32:21.061Z,61.67
2019-05-21T20:34:51.059Z,61.61
2019-05-21T20:37:21.454Z,61.55
2019-05-21T20:39:50.055Z,61.86
2019-05-21T20:42:20.951Z,62.51
2019-05-21T20:44:49.688Z,62.81
2019-05-21T20:47:18.972Z,63.67
2019-05-21T20:49:49.000Z,64.04
2019-05-21T20:52:18.913Z,64.76
2019-05-21T20:54:47.921Z,65.51
2019-05-21T20:57:18.217Z,65.89
2019-05-21T20:59:46.724Z,66.29
2019-05-21T21:02:16.123Z,67.59
2019-05-21T21:04:45.239Z,68.24
2019-05-21T21:07:13.783Z,68.77
2019-05-21T21:09:42.736Z,69.11
2019-05-21T21:12:11.772Z,69.22
2019-05-21T21:14:41.022Z,69.74
2019-05-21T21:17:11.065Z,70.72
2019-05-21T21:19:40.864Z,71.94
2019-05-21T21:22:09.347Z,72.84
2019-05-21T21:24:38.860Z,73.33
2019-05-21T21:27:08.136Z,74.63
2019-05-21T21:29:36.630Z,74.75
2019-05-21T21:32:05.142Z,74.98
2019-05-21T21:34:33.807Z,74.92
2019-05-21T21:37:04.321Z,74.96
2019-05-21T21:39:33.263Z,75.22
2019-05-21T21:42:03.022Z,75.65
2019-05-21T21:44:34.450Z,76.37
2019-05-21T21:47:03.485Z,77.16
2019-05-21T21:49:37.595Z,77.92
2019-05-21T21:52:08.005Z,77.71
2019-05-21T21:54:38.179Z,77.65
2019-05-21T21:57:06.739Z,78.25
2019-05-21T21:59:35.572Z,78.49
2019-05-21T22:02:10.477Z,78.99
2019-05-21T22:04:39.665Z,79.35
2019-05-21T22:07:08.837Z,79.57
2019-05-21T22:09:38.754Z,80.06
2019-05-21T22:12:09.690Z,79.97
2019-05-21T22:14:50.469Z,79.95
2019-05-21T22:17:10.822Z,79.90
2019-05-21T22:19:39.749Z,79.95
2019-05-21T22:22:10.110Z,80.09
2019-05-21T22:24:38.971Z,80.39
2019-05-21T22:27:07.567Z,80.67
2019-05-21T22:29:37.257Z,80.75
2019-05-21T22:32:05.743Z,81.10
2019-05-21T22:34:34.462Z,81.48
2019-05-21T22:37:03.066Z,81.49
2019-05-21T22:39:32.448Z,81.49
2019-05-21T22:42:01.434Z,81.66
2019-05-21T22:44:30.759Z,81.52
2019-05-21T22:46:59.456Z,81.68
2019-05-21T22:49:33.617Z,81.61
2019-05-21T22:51:58.427Z,81.40
2019-05-21T22:54:26.987Z,81.49
2019-05-21T22:56:55.418Z,81.84
2019-05-21T22:59:23.948Z,82.22
2019-05-21T23:01:54.343Z,82.47
2019-05-21T23:04:22.715Z,82.39
2019-05-21T23:06:51.341Z,82.50
2019-05-21T23:09:19.770Z,83.29
2019-05-21T23:11:48.531Z,84.26
2019-05-21T23:14:17.204Z,84.41
2019-05-21T23:16:45.637Z,84.58
2019-05-21T23:19:16.114Z,84.69
2019-05-21T23:21:46.248Z,84.83
2019-05-21T23:24:17.111Z,84.61
2019-05-21T23:26:46.926Z,85.21
2019-05-21T23:29:16.135Z,86.00
2019-05-21T23:31:44.745Z,86.35
2019-05-21T23:34:14.139Z,86.08
2019-05-21T23:36:43.258Z,86.31
2019-05-21T23:39:13.497Z,86.48
2019-05-21T23:41:42.378Z,86.31
2019-05-21T23:44:10.733Z,85.68
2019-05-21T23:46:40.004Z,85.37
2019-05-21T23:49:08.532Z,85.73
2019-05-21T23:51:36.929Z,85.84
2019-05-21T23:54:05.951Z,85.52
2019-05-21T23:56:34.473Z,86.06
2019-05-21T23:59:03.686Z,86.33
